Time;durP1;ratioP1;P1;durP2;ratioP2;P2;SDS_P1;SDS_P2;PMS_P1;PMS_P2;Temp;Humidity;BMP_temperature;BMP_pressure;BME280_temperature;BME280_humidity;BME280_pressure;Samples;Min_cycle;Max_cycle;Signal;HPM_P1;HPM_P2
2022/01/16 01:18:06;;;;;;;;;;;26.20;79.20;;;;;;5058129;28;20397;-66
2022/01/16 01:20:33;;;;;;;;;;;26.30;79.60;;;;;;5090901;28;19920;-68
2022/01/16 01:22:59;;;;;;;;;;;26.30;78.80;;;;;;5091954;28;19995;-68
2022/01/16 01:25:26;;;;;;;;;;;26.20;79.00;;;;;;5092891;28;19904;-68
2022/01/16 01:27:52;;;;;;;;;;;26.30;78.60;;;;;;5092161;28;20282;-67
2022/01/16 01:30:20;;;;;;;;;;;26.30;78.90;;;;;;5092700;28;19908;-68
2022/01/16 01:32:47;;;;;;;;;;;26.30;79.00;;;;;;5092722;28;19940;-68
2022/01/16 01:35:14;;;;;;;;;;;26.30;78.30;;;;;;5092665;28;19911;-67
2022/01/16 01:37:41;;;;;;;;;;;26.20;77.60;;;;;;5092000;28;19904;-67
2022/01/16 01:40:13;;;;;;;;;;;26.20;77.90;;;;;;5092506;28;19904;-67
2022/01/16 01:42:47;;;;;;;;;;;26.10;78.30;;;;;;5091985;28;19904;-68
2022/01/16 01:51:08;;;;;;;;;;;25.90;79.10;;;;;;5091646;28;19915;-68
2022/01/16 01:53:35;;;;;;;;;;;26.00;79.00;;;;;;5091967;28;20317;-68
2022/01/16 01:56:02;;;;;;;;;;;26.00;79.10;;;;;;5092324;28;19915;-68
2022/01/16 01:58:29;;;;;;;;;;;26.00;78.60;;;;;;5091756;28;19904;-68
2022/01/16 02:00:55;;;;;;;;;;;26.00;79.20;;;;;;5091632;28;19912;-67
2022/01/16 02:03:33;;;;;;;;;;;26.00;79.70;;;;;;5092200;28;20053;-68
2022/01/16 02:05:59;;;;;;;;;;;26.00;79.60;;;;;;5091705;28;19911;-68
2022/01/16 02:08:26;;;;;;;;;;;25.90;79.30;;;;;;5091250;28;20358;-68
2022/01/16 02:10:52;;;;;;;;;;;25.80;79.30;;;;;;5091751;28;19904;-68
2022/01/16 02:13:27;;;;;;;;;;;25.80;78.90;;;;;;5091643;28;19931;-68
2022/01/16 02:34:40;;;;;;;;;;;25.80;79.70;;;;;;5048513;28;19947;-67
2022/01/16 02:37:10;;;;;;;;;;;25.80;78.80;;;;;;5091513;28;19904;-67
2022/01/16 02:39:37;;;;;;;;;;;25.70;79.20;;;;;;5073774;28;20389;-68
2022/01/16 02:42:05;;;;;;;;;;;25.80;79.30;;;;;;5090992;28;19919;-68
2022/01/16 02:44:35;;;;;;;;;;;25.80;79.60;;;;;;5091611;28;19915;-68
2022/01/16 02:47:02;;;;;;;;;;;25.80;79.00;;;;;;5090912;28;19912;-68
2022/01/16 02:49:30;;;;;;;;;;;25.80;78.60;;;;;;5091203;28;19957;-68
2022/01/16 02:51:59;;;;;;;;;;;25.80;78.70;;;;;;5091419;28;19999;-68
2022/01/16 02:54:27;;;;;;;;;;;25.80;78.60;;;;;;5090849;28;19904;-68
2022/01/16 02:56:54;;;;;;;;;;;25.80;79.40;;;;;;5090696;28;19916;-68
2022/01/16 02:59:21;;;;;;;;;;;25.90;79.20;;;;;;5091034;28;19904;-67
2022/01/16 03:01:48;;;;;;;;;;;25.90;77.80;;;;;;5086930;28;19943;-68
2022/01/16 03:04:16;;;;;;;;;;;26.00;77.90;;;;;;5080764;28;19993;-68
2022/01/16 03:06:42;;;;;;;;;;;26.00;78.20;;;;;;5070486;28;19927;-68
2022/01/16 03:09:10;;;;;;;;;;;26.00;79.20;;;;;;5070129;28;19966;-67
2022/01/16 03:11:47;;;;;;;;;;;26.00;78.60;;;;;;5070110;28;19966;-67
2022/01/16 03:14:14;;;;;;;;;;;26.00;78.10;;;;;;5052933;28;19915;-67
2022/01/16 03:16:44;;;;;;;;;;;25.90;78.20;;;;;;5070355;28;19970;-68
2022/01/16 03:21:57;;;;;;;;;;;25.80;78.20;;;;;;5055738;28;19961;-68
2022/01/16 03:24:25;;;;;;;;;;;25.80;78.90;;;;;;5070496;28;20313;-67
2022/01/16 03:26:55;;;;;;;;;;;25.80;79.00;;;;;;5070783;28;20133;-67
2022/01/16 03:29:21;;;;;;;;;;;25.80;79.40;;;;;;5070378;28;19905;-67
2022/01/16 03:31:48;;;;;;;;;;;25.80;79.00;;;;;;5070155;28;19904;-67
2022/01/16 03:34:15;;;;;;;;;;;25.90;78.10;;;;;;5070680;28;20432;-68
2022/01/16 03:36:41;;;;;;;;;;;26.00;78.10;;;;;;5070331;28;19912;-68
2022/01/16 03:39:08;;;;;;;;;;;25.90;78.60;;;;;;5070281;28;19905;-67
2022/01/16 03:41:35;;;;;;;;;;;25.90;78.70;;;;;;5070668;28;19917;-67
2022/01/16 03:44:02;;;;;;;;;;;25.90;79.20;;;;;;5070305;28;20366;-67
2022/01/16 03:46:34;;;;;;;;;;;26.00;79.10;;;;;;5073250;28;20366;-67
2022/01/16 03:49:04;;;;;;;;;;;26.10;78.20;;;;;;5074394;28;19904;-67
2022/01/16 03:51:31;;;;;;;;;;;26.10;78.20;;;;;;5073980;28;19905;-67
2022/01/16 03:53:57;;;;;;;;;;;26.10;77.80;;;;;;5074446;28;19911;-67
2022/01/16 03:56:24;;;;;;;;;;;26.00;78.10;;;;;;5073868;28;20320;-67
2022/01/16 03:58:50;;;;;;;;;;;26.00;78.30;;;;;;5074107;28;19911;-67
2022/01/16 04:01:17;;;;;;;;;;;26.00;78.50;;;;;;5074225;28;19917;-68
2022/01/16 04:03:44;;;;;;;;;;;26.00;78.20;;;;;;5074156;28;19912;-67
2022/01/16 04:06:11;;;;;;;;;;;25.90;77.90;;;;;;5073839;28;19905;-67
2022/01/16 04:08:37;;;;;;;;;;;25.80;78.70;;;;;;5074539;28;19982;-67
2022/01/16 04:11:04;;;;;;;;;;;25.70;78.10;;;;;;5073908;28;20472;-67
2022/01/16 04:13:32;;;;;;;;;;;25.70;78.40;;;;;;5073848;28;19904;-67
2022/01/16 04:15:58;;;;;;;;;;;25.60;78.20;;;;;;5073992;28;19911;-68
2022/01/16 04:18:25;;;;;;;;;;;25.70;78.90;;;;;;5073581;28;19919;-67
2022/01/16 04:20:51;;;;;;;;;;;25.60;78.60;;;;;;5073194;28;20007;-67
2022/01/16 04:23:18;;;;;;;;;;;25.60;79.50;;;;;;5055907;28;19905;-67
2022/01/16 04:25:45;;;;;;;;;;;25.60;79.40;;;;;;5073221;28;19912;-67
2022/01/16 04:28:11;;;;;;;;;;;25.60;79.40;;;;;;5073227;28;19904;-67
2022/01/16 04:30:38;;;;;;;;;;;25.60;79.20;;;;;;5073577;28;19905;-67
2022/01/16 04:33:04;;;;;;;;;;;25.50;78.80;;;;;;5072688;28;19904;-67
2022/01/16 04:35:31;;;;;;;;;;;25.60;79.30;;;;;;5073167;28;19912;-67
2022/01/16 04:37:57;;;;;;;;;;;25.50;79.30;;;;;;5073916;28;20305;-67
2022/01/16 04:40:24;;;;;;;;;;;25.50;79.70;;;;;;5073415;28;20334;-67
2022/01/16 04:45:35;;;;;;;;;;;25.50;79.40;;;;;;5073490;28;19950;-67
2022/01/16 04:48:03;;;;;;;;;;;25.50;79.80;;;;;;5073052;28;19915;-67
2022/01/16 04:50:30;;;;;;;;;;;25.40;79.80;;;;;;5073096;28;20274;-66
2022/01/16 04:52:56;;;;;;;;;;;25.40;79.70;;;;;;5073353;28;19920;-67
2022/01/16 04:55:24;;;;;;;;;;;25.40;79.30;;;;;;5073286;28;19905;-67
2022/01/16 04:57:51;;;;;;;;;;;25.40;79.20;;;;;;5072208;28;19911;-67
2022/01/16 05:00:17;;;;;;;;;;;25.40;80.00;;;;;;5073028;28;19912;-67
2022/01/16 05:02:45;;;;;;;;;;;25.40;79.30;;;;;;5054333;28;19999;-67
2022/01/16 05:05:11;;;;;;;;;;;25.40;79.30;;;;;;5073023;28;20003;-67
2022/01/16 05:07:38;;;;;;;;;;;25.50;80.30;;;;;;5072826;28;19904;-68
2022/01/16 05:10:05;;;;;;;;;;;25.60;80.00;;;;;;5072562;28;19904;-67
2022/01/16 05:12:35;;;;;;;;;;;25.50;79.10;;;;;;5072926;28;19949;-67
2022/01/16 05:17:46;;;;;;;;;;;25.50;79.70;;;;;;5072467;28;19968;-67
2022/01/16 05:20:13;;;;;;;;;;;25.40;79.30;;;;;;5072616;28;20023;-67
2022/01/16 05:22:39;;;;;;;;;;;25.50;80.10;;;;;;5072438;28;19908;-68
2022/01/16 05:25:07;;;;;;;;;;;25.50;80.10;;;;;;5072421;28;19948;-67
2022/01/16 05:27:34;;;;;;;;;;;25.60;80.30;;;;;;5072672;28;19908;-68
2022/01/16 05:30:01;;;;;;;;;;;25.80;80.40;;;;;;5071980;28;19908;-68
2022/01/16 05:32:27;;;;;;;;;;;25.70;79.10;;;;;;5072107;28;19915;-68
2022/01/16 05:34:54;;;;;;;;;;;25.70;79.00;;;;;;5072768;28;19995;-68
2022/01/16 05:37:20;;;;;;;;;;;25.60;78.70;;;;;;5071829;28;19911;-67
2022/01/16 05:39:49;;;;;;;;;;;25.60;80.00;;;;;;5072351;28;19916;-67
2022/01/16 05:42:15;;;;;;;;;;;25.70;80.30;;;;;;5054418;28;20389;-67
2022/01/16 05:44:42;;;;;;;;;;;25.70;79.50;;;;;;5054147;28;19915;-68
2022/01/16 05:47:12;;;;;;;;;;;25.70;79.60;;;;;;5072365;28;19927;-67
2022/01/16 05:49:40;;;;;;;;;;;25.70;80.10;;;;;;5071574;28;19904;-67
2022/01/16 05:52:07;;;;;;;;;;;25.60;80.20;;;;;;5071346;28;19975;-67
2022/01/16 05:54:34;;;;;;;;;;;25.70;80.10;;;;;;5071987;28;19900;-67
2022/01/16 05:57:00;;;;;;;;;;;25.70;80.50;;;;;;5071503;28;20296;-67
2022/01/16 05:59:27;;;;;;;;;;;25.60;80.60;;;;;;5071558;28;19908;-67
2022/01/16 06:01:53;;;;;;;;;;;25.70;80.40;;;;;;5076205;28;19959;-68
2022/01/16 06:04:20;;;;;;;;;;;25.70;79.60;;;;;;5088622;28;19932;-66
2022/01/16 06:06:46;;;;;;;;;;;25.60;79.20;;;;;;5079394;28;19943;-67
2022/01/16 06:09:13;;;;;;;;;;;25.60;78.80;;;;;;5090233;28;19904;-66
2022/01/16 06:11:39;;;;;;;;;;;25.50;78.20;;;;;;5077035;28;19911;-67
2022/01/16 06:14:06;;;;;;;;;;;25.30;78.60;;;;;;5070951;28;19911;-67
2022/01/16 06:16:35;;;;;;;;;;;25.30;79.40;;;;;;5071573;28;19904;-67
2022/01/16 06:19:01;;;;;;;;;;;25.20;80.10;;;;;;5086178;28;19912;-66
2022/01/16 06:21:28;;;;;;;;;;;25.20;80.20;;;;;;5090989;28;19942;-66
2022/01/16 06:23:55;;;;;;;;;;;25.20;81.20;;;;;;5091357;28;19915;-67
2022/01/16 06:26:21;;;;;;;;;;;25.20;81.40;;;;;;5091233;28;20281;-67
2022/01/16 06:28:48;;;;;;;;;;;25.20;81.70;;;;;;5091152;28;20492;-66
2022/01/16 06:31:14;;;;;;;;;;;25.30;81.70;;;;;;5090776;28;19904;-66
2022/01/16 06:33:41;;;;;;;;;;;25.30;81.50;;;;;;5090942;28;19904;-66
2022/01/16 06:36:07;;;;;;;;;;;25.30;81.70;;;;;;5090473;28;20336;-67
2022/01/16 06:38:34;;;;;;;;;;;25.40;81.50;;;;;;5091000;28;19908;-66
2022/01/16 06:41:01;;;;;;;;;;;25.40;81.20;;;;;;5072543;28;19919;-66
2022/01/16 06:43:28;;;;;;;;;;;25.50;80.40;;;;;;5091138;28;19986;-65
2022/01/16 06:45:56;;;;;;;;;;;25.40;79.70;;;;;;5091121;28;19909;-65
2022/01/16 06:48:23;;;;;;;;;;;25.40;80.20;;;;;;5091681;28;19962;-66
2022/01/16 06:50:49;;;;;;;;;;;25.40;80.20;;;;;;5090899;28;19904;-65
2022/01/16 06:53:16;;;;;;;;;;;25.40;79.90;;;;;;5090179;28;19933;-66
2022/01/16 06:55:42;;;;;;;;;;;25.30;80.70;;;;;;5090677;28;19908;-66
2022/01/16 07:23:01;;;;;;;;;;;25.20;80.90;;;;;;5068389;28;19975;-69
2022/01/16 07:25:28;;;;;;;;;;;25.10;81.30;;;;;;5071966;28;19920;-68
2022/01/16 07:27:54;;;;;;;;;;;25.10;81.30;;;;;;5068079;28;20324;-67
2022/01/16 07:30:21;;;;;;;;;;;25.10;81.70;;;;;;5069524;28;19919;-67
2022/01/16 07:32:47;;;;;;;;;;;25.10;81.10;;;;;;5074078;28;19985;-68
2022/01/16 07:35:14;;;;;;;;;;;25.10;81.50;;;;;;5074233;28;19904;-66
2022/01/16 07:37:40;;;;;;;;;;;25.20;81.40;;;;;;5073769;28;20546;-68
2022/01/16 07:40:09;;;;;;;;;;;25.10;81.10;;;;;;5065691;28;19915;-68
2022/01/16 07:42:35;;;;;;;;;;;25.00;81.30;;;;;;5073547;28;20398;-67
2022/01/16 07:45:03;;;;;;;;;;;25.00;81.50;;;;;;5074081;28;20018;-67
2022/01/16 07:47:29;;;;;;;;;;;25.10;81.50;;;;;;5094219;28;19904;-67
2022/01/16 07:49:56;;;;;;;;;;;25.00;81.70;;;;;;5043965;28;19983;-67
2022/01/16 07:52:23;;;;;;;;;;;25.00;81.70;;;;;;5077500;28;19966;-67
2022/01/16 07:54:49;;;;;;;;;;;25.00;81.90;;;;;;5076999;28;19912;-67
2022/01/16 07:57:16;;;;;;;;;;;25.00;81.90;;;;;;5076223;28;19915;-67
2022/01/16 07:59:42;;;;;;;;;;;25.00;82.10;;;;;;5094443;28;20346;-66
2022/01/16 08:02:09;;;;;;;;;;;25.00;82.10;;;;;;5078105;28;20318;-66
2022/01/16 08:04:35;;;;;;;;;;;25.00;81.90;;;;;;5073600;28;19908;-65
2022/01/16 08:07:03;;;;;;;;;;;25.00;82.00;;;;;;5078071;28;19962;-67
2022/01/16 08:09:30;;;;;;;;;;;25.00;82.10;;;;;;5093993;28;19904;-69
2022/01/16 08:11:57;;;;;;;;;;;24.90;82.40;;;;;;5082800;28;19908;-68
2022/01/16 08:14:24;;;;;;;;;;;24.90;82.40;;;;;;5073721;28;20023;-67
2022/01/16 08:16:50;;;;;;;;;;;25.00;82.50;;;;;;5073286;28;19966;-68
2022/01/16 08:19:17;;;;;;;;;;;24.90;82.60;;;;;;5072839;28;19909;-68
2022/01/16 08:21:43;;;;;;;;;;;24.90;82.90;;;;;;5072960;28;20298;-68
2022/01/16 13:46:40;;;;;;;;;;;24.00;87.30;;;;;;5070155;28;19977;-65
2022/01/16 13:49:07;;;;;;;;;;;24.00;87.50;;;;;;5068053;28;19965;-65
2022/01/16 13:51:34;;;;;;;;;;;23.90;87.50;;;;;;5071721;28;19999;-65
2022/01/16 13:54:10;;;;;;;;;;;24.00;87.50;;;;;;5071533;28;19904;-65
2022/01/16 13:56:39;;;;;;;;;;;24.00;87.60;;;;;;5053643;28;20441;-66
2022/01/16 13:59:10;;;;;;;;;;;24.00;87.50;;;;;;5049903;28;19913;-65
2022/01/16 14:01:39;;;;;;;;;;;24.00;87.60;;;;;;5051663;28;19955;-66
2022/01/16 14:04:16;;;;;;;;;;;24.00;87.60;;;;;;5055677;28;19954;-65
2022/01/16 14:07:01;;;;;;;;;;;24.00;87.50;;;;;;5071595;28;19908;-66
2022/01/16 14:09:30;;;;;;;;;;;24.00;87.50;;;;;;5070985;28;19975;-66
2022/01/16 14:11:57;;;;;;;;;;;24.00;87.50;;;;;;5071596;28;19969;-66
2022/01/16 14:14:24;;;;;;;;;;;24.00;87.50;;;;;;5071035;28;19908;-65
2022/01/16 14:19:28;;;;;;;;;;;24.00;87.40;;;;;;5071175;28;19919;-66
2022/01/16 14:22:09;;;;;;;;;;;24.00;87.40;;;;;;5070897;28;19916;-66
2022/01/16 14:24:45;;;;;;;;;;;24.00;87.40;;;;;;5070661;28;19908;-65
2022/01/16 14:27:13;;;;;;;;;;;24.00;87.40;;;;;;5070884;28;19906;-65
2022/01/16 14:29:41;;;;;;;;;;;24.00;87.50;;;;;;5070207;28;19909;-65
2022/01/16 14:32:09;;;;;;;;;;;24.00;87.30;;;;;;5070899;28;19911;-65
2022/01/16 14:34:38;;;;;;;;;;;24.00;87.40;;;;;;5052815;28;19920;-65
2022/01/16 14:37:05;;;;;;;;;;;24.00;87.30;;;;;;5070553;28;19908;-65
2022/01/16 14:39:32;;;;;;;;;;;24.00;87.20;;;;;;5070535;28;19962;-66
2022/01/16 14:41:59;;;;;;;;;;;24.00;87.10;;;;;;5069124;28;19981;-66
2022/01/16 14:44:27;;;;;;;;;;;23.90;87.00;;;;;;5065230;28;19908;-66
2022/01/16 14:46:53;;;;;;;;;;;23.90;87.00;;;;;;5069144;28;19920;-65
2022/01/16 14:49:20;;;;;;;;;;;24.00;87.10;;;;;;5070695;28;20007;-66
2022/01/16 14:51:47;;;;;;;;;;;24.00;87.10;;;;;;5070977;28;19904;-65
2022/01/16 14:54:13;;;;;;;;;;;23.90;87.00;;;;;;5070305;28;20359;-65
2022/01/16 14:56:40;;;;;;;;;;;24.00;87.20;;;;;;5053048;28;19905;-66
2022/01/16 14:59:07;;;;;;;;;;;24.00;86.80;;;;;;5070807;28;19909;-65
2022/01/16 15:01:33;;;;;;;;;;;24.00;87.00;;;;;;5070050;28;19931;-65
2022/01/16 15:04:00;;;;;;;;;;;23.90;86.80;;;;;;5069967;28;20269;-65
2022/01/16 15:06:26;;;;;;;;;;;24.00;86.80;;;;;;5070704;28;19991;-66
2022/01/16 15:08:54;;;;;;;;;;;23.90;86.80;;;;;;5070910;28;19974;-66
2022/01/16 15:11:21;;;;;;;;;;;23.90;86.80;;;;;;5069739;28;19908;-66
2022/01/16 15:13:47;;;;;;;;;;;23.90;86.80;;;;;;5063043;28;19916;-66
2022/01/16 18:02:11;;;;;;;;;;;23.10;87.10;;;;;;5048451;28;20043;-66
2022/01/16 18:04:38;;;;;;;;;;;23.10;87.20;;;;;;5070931;28;20422;-66
2022/01/16 18:07:05;;;;;;;;;;;23.10;87.40;;;;;;5071712;28;19904;-66
2022/01/16 18:09:31;;;;;;;;;;;23.10;87.30;;;;;;5080667;28;19912;-66
2022/01/16 18:11:58;;;;;;;;;;;23.10;87.30;;;;;;5091870;28;19999;-66
2022/01/16 18:14:28;;;;;;;;;;;23.10;87.30;;;;;;5070918;28;20386;-66
2022/01/16 18:16:55;;;;;;;;;;;23.00;87.20;;;;;;5091403;28;19957;-66
2022/01/16 18:19:21;;;;;;;;;;;23.10;87.40;;;;;;5083344;28;20313;-66
2022/01/16 18:21:48;;;;;;;;;;;23.10;87.30;;;;;;5074858;28;19916;-67
2022/01/16 18:24:16;;;;;;;;;;;23.10;87.30;;;;;;5071252;28;19904;-66
2022/01/16 18:26:43;;;;;;;;;;;23.10;87.20;;;;;;5071107;28;19952;-66
2022/01/16 18:29:09;;;;;;;;;;;23.10;87.40;;;;;;5070990;28;19936;-66
2022/01/16 18:31:38;;;;;;;;;;;23.10;87.10;;;;;;5089517;28;20326;-66
2022/01/16 18:34:05;;;;;;;;;;;23.00;87.00;;;;;;5091952;28;19911;-66
2022/01/16 18:36:32;;;;;;;;;;;23.10;86.90;;;;;;5090931;28;19908;-66
2022/01/16 18:38:59;;;;;;;;;;;23.00;87.10;;;;;;5090808;28;19904;-66
2022/01/16 18:41:26;;;;;;;;;;;23.00;87.20;;;;;;5076819;28;20006;-66
2022/01/16 18:43:54;;;;;;;;;;;23.00;87.40;;;;;;5070733;28;19991;-66
2022/01/16 18:46:23;;;;;;;;;;;23.00;87.50;;;;;;5070844;28;20382;-67
2022/01/16 18:48:54;;;;;;;;;;;23.00;87.60;;;;;;5071313;28;19983;-66
2022/01/16 18:51:26;;;;;;;;;;;23.00;87.50;;;;;;5081199;28;19908;-66
2022/01/16 18:53:52;;;;;;;;;;;22.90;87.40;;;;;;5090451;28;19908;-66
2022/01/16 18:56:19;;;;;;;;;;;22.90;87.30;;;;;;5090492;28;20345;-67
2022/01/16 18:58:46;;;;;;;;;;;22.90;87.30;;;;;;5086977;28;19974;-66
2022/01/16 19:01:12;;;;;;;;;;;22.90;87.40;;;;;;5090511;28;20032;-66
2022/01/16 19:03:39;;;;;;;;;;;22.90;87.30;;;;;;5075844;28;20270;-66
2022/01/16 19:06:05;;;;;;;;;;;22.90;87.40;;;;;;5070436;28;19910;-66
2022/01/16 19:08:32;;;;;;;;;;;23.00;87.30;;;;;;5070388;28;19912;-66
2022/01/16 19:11:01;;;;;;;;;;;22.90;87.40;;;;;;5086370;28;19908;-66
2022/01/16 19:13:28;;;;;;;;;;;23.00;87.60;;;;;;5084970;28;19930;-66
2022/01/16 19:15:55;;;;;;;;;;;23.00;87.60;;;;;;5088017;28;20314;-66
2022/01/16 19:18:21;;;;;;;;;;;23.00;87.60;;;;;;5091265;28;20066;-66
2022/01/16 19:20:48;;;;;;;;;;;22.90;87.60;;;;;;5061880;28;19915;-66
2022/01/16 19:23:14;;;;;;;;;;;22.90;87.70;;;;;;5070880;28;19913;-66
2022/01/16 19:25:41;;;;;;;;;;;23.00;87.90;;;;;;5070472;28;20271;-66
2022/01/16 19:28:08;;;;;;;;;;;23.00;87.80;;;;;;5070546;28;20470;-66
2022/01/16 19:30:36;;;;;;;;;;;23.00;87.50;;;;;;5082031;28;19922;-66
2022/01/16 19:33:05;;;;;;;;;;;23.10;87.40;;;;;;5082631;28;19947;-66
2022/01/16 19:35:31;;;;;;;;;;;23.10;87.30;;;;;;5090519;28;19951;-66
2022/01/16 19:37:58;;;;;;;;;;;23.10;87.50;;;;;;5072817;28;20465;-66
2022/01/16 19:40:25;;;;;;;;;;;23.20;87.40;;;;;;5088823;28;19965;-66
2022/01/16 19:45:24;;;;;;;;;;;23.20;87.50;;;;;;5070620;28;19962;-66
2022/01/16 19:47:51;;;;;;;;;;;23.30;87.40;;;;;;5087308;28;19961;-66
2022/01/16 19:50:17;;;;;;;;;;;23.30;87.50;;;;;;5081500;28;20316;-66
2022/01/16 19:52:44;;;;;;;;;;;23.40;87.50;;;;;;5083192;28;19931;-66
2022/01/16 19:55:11;;;;;;;;;;;23.40;87.70;;;;;;5089520;28;19922;-66
2022/01/16 19:57:38;;;;;;;;;;;23.50;87.60;;;;;;5089835;28;19908;-66
2022/01/16 20:00:05;;;;;;;;;;;23.50;87.60;;;;;;5089859;28;19908;-67
2022/01/16 20:02:34;;;;;;;;;;;23.50;87.60;;;;;;5089308;28;20329;-66
2022/01/16 20:05:00;;;;;;;;;;;23.60;87.70;;;;;;5057855;28;20357;-66
2022/01/16 20:07:27;;;;;;;;;;;23.60;87.60;;;;;;5086169;28;19944;-66
2022/01/16 20:09:53;;;;;;;;;;;23.70;87.70;;;;;;5090065;28;19908;-67
2022/01/16 20:12:20;;;;;;;;;;;23.70;87.60;;;;;;5090201;28;19908;-67
2022/01/16 20:14:49;;;;;;;;;;;23.70;87.60;;;;;;5080612;28;19977;-67
2022/01/16 20:17:16;;;;;;;;;;;23.80;87.50;;;;;;5088979;28;19923;-65
2022/01/16 20:19:42;;;;;;;;;;;23.80;87.50;;;;;;5078065;28;20336;-66
2022/01/16 21:03:48;;;;;;;;;;;24.40;86.70;;;;;;5060051;28;20363;-68
2022/01/16 21:06:18;;;;;;;;;;;24.50;86.70;;;;;;5090406;28;19919;-68
2022/01/16 21:08:45;;;;;;;;;;;24.70;86.70;;;;;;5072708;28;19945;-68
2022/01/16 21:11:13;;;;;;;;;;;24.70;86.80;;;;;;5072635;28;19904;-68
2022/01/16 21:13:41;;;;;;;;;;;24.80;86.30;;;;;;5072781;28;19912;-68
2022/01/16 21:16:12;;;;;;;;;;;24.90;85.70;;;;;;5071925;28;19915;-68
2022/01/16 21:18:39;;;;;;;;;;;25.00;85.30;;;;;;5085591;28;20308;-68
2022/01/16 21:21:05;;;;;;;;;;;25.10;85.30;;;;;;5092381;28;19952;-67
2022/01/16 21:23:32;;;;;;;;;;;25.30;85.30;;;;;;5074913;28;19955;-68
2022/01/16 21:25:59;;;;;;;;;;;25.40;84.50;;;;;;5074511;28;19908;-68
2022/01/16 21:28:25;;;;;;;;;;;25.60;84.20;;;;;;5092187;28;20010;-68
2022/01/16 21:30:52;;;;;;;;;;;25.70;82.70;;;;;;5090773;28;20434;-68
2022/01/16 21:33:20;;;;;;;;;;;25.70;82.40;;;;;;5073897;28;19961;-67
2022/01/16 21:35:47;;;;;;;;;;;25.80;81.80;;;;;;5089528;28;20251;-68
2022/01/16 21:38:14;;;;;;;;;;;25.80;81.70;;;;;;5077937;28;19995;-68
2022/01/16 21:40:42;;;;;;;;;;;25.80;81.40;;;;;;5070152;28;19904;-68
2022/01/16 21:43:09;;;;;;;;;;;25.80;81.40;;;;;;5070814;28;19912;-67
2022/01/16 21:45:35;;;;;;;;;;;25.90;81.00;;;;;;5071700;28;19908;-67
2022/01/16 21:48:02;;;;;;;;;;;25.90;80.00;;;;;;5079420;28;19908;-67
2022/01/16 21:50:30;;;;;;;;;;;25.80;80.50;;;;;;5077896;28;19908;-68
2022/01/16 21:52:56;;;;;;;;;;;25.80;80.40;;;;;;5083870;28;19941;-67
2022/01/16 21:55:24;;;;;;;;;;;25.90;80.20;;;;;;5064245;28;19935;-68
2022/01/16 21:57:51;;;;;;;;;;;26.00;80.30;;;;;;5072007;28;21257;-67
2022/01/16 22:00:18;;;;;;;;;;;26.10;79.80;;;;;;5074451;28;19919;-68
2022/01/16 22:02:45;;;;;;;;;;;26.10;80.10;;;;;;5067415;28;19920;-68
2022/01/16 22:05:11;;;;;;;;;;;26.20;79.40;;;;;;5072945;28;19967;-68
2022/01/16 22:07:39;;;;;;;;;;;26.30;79.70;;;;;;5070169;28;19916;-67
2022/01/16 22:10:06;;;;;;;;;;;26.30;78.30;;;;;;5082617;28;20010;-67
2022/01/16 22:12:34;;;;;;;;;;;26.30;78.10;;;;;;5089251;28;19912;-67
2022/01/16 22:15:01;;;;;;;;;;;26.40;77.80;;;;;;5090065;28;19912;-67
2022/01/16 22:17:27;;;;;;;;;;;26.40;77.60;;;;;;5082981;28;19999;-67
2022/01/16 22:19:54;;;;;;;;;;;26.40;77.50;;;;;;5089569;28;19908;-67
2022/01/16 22:22:21;;;;;;;;;;;26.40;77.70;;;;;;5084346;28;19925;-67
2022/01/16 22:24:47;;;;;;;;;;;26.30;77.90;;;;;;5070532;28;19958;-67
2022/01/16 22:27:14;;;;;;;;;;;26.30;78.00;;;;;;5077151;28;19908;-67
2022/01/16 22:29:42;;;;;;;;;;;26.30;78.20;;;;;;5075353;28;19948;-67
2022/01/16 22:32:09;;;;;;;;;;;26.20;78.30;;;;;;5087068;28;19919;-67
2022/01/16 22:34:35;;;;;;;;;;;26.10;78.40;;;;;;5078597;28;19908;-67
2022/01/16 22:37:07;;;;;;;;;;;26.00;78.50;;;;;;5085275;28;19916;-67
2022/01/16 22:39:33;;;;;;;;;;;25.90;78.70;;;;;;5089926;28;19999;-67
2022/01/16 22:42:02;;;;;;;;;;;25.80;79.10;;;;;;5080383;28;19908;-67
2022/01/16 22:44:29;;;;;;;;;;;25.80;79.70;;;;;;5075787;28;19908;-67
2022/01/16 22:46:55;;;;;;;;;;;25.90;79.40;;;;;;5080764;28;19919;-67
2022/01/16 22:49:25;;;;;;;;;;;25.90;79.30;;;;;;5076805;28;19911;-67
2022/01/16 22:51:52;;;;;;;;;;;26.00;78.90;;;;;;5084355;28;20369;-67
2022/01/16 22:54:19;;;;;;;;;;;26.00;78.50;;;;;;5080898;28;19908;-67
2022/01/16 22:56:46;;;;;;;;;;;26.10;78.30;;;;;;5070400;28;20023;-68
2022/01/16 22:59:12;;;;;;;;;;;26.00;78.60;;;;;;5074283;28;19969;-67
2022/01/16 23:01:39;;;;;;;;;;;26.00;78.50;;;;;;5072632;28;20285;-67
2022/01/16 23:45:27;;;;;;;;;;;26.90;75.00;;;;;;5040096;28;20330;-67
2022/01/16 23:47:54;;;;;;;;;;;26.90;74.80;;;;;;5029002;28;20271;-67
2022/01/16 23:50:21;;;;;;;;;;;27.00;75.10;;;;;;5043550;28;19904;-68
2022/01/16 23:52:48;;;;;;;;;;;27.10;74.90;;;;;;5041920;28;19908;-68
2022/01/16 23:55:14;;;;;;;;;;;27.00;75.30;;;;;;5045426;28;19908;-68
2022/01/16 23:57:41;;;;;;;;;;;27.00;75.40;;;;;;5039467;28;19905;-67
